TimeCDT,TemperatureF,Dew PointF,Humidity,Sea Level PressureIn,VisibilityMPH,Wind Direction,Wind SpeedMPH,Gust SpeedMPH,PrecipitationIn,Events,Conditions,WindDirDegrees,DateUTC
12:53 AM,66.9,61.0,81,29.82,10.0,NW,6.9,-,N/A,,Clear,320,2013-09-02 05:53:00
1:53 AM,66.0,60.1,81,29.83,10.0,NW,5.8,-,N/A,,Clear,320,2013-09-02 06:53:00
2:53 AM,64.9,60.1,84,29.83,10.0,NW,4.6,-,N/A,,Clear,320,2013-09-02 07:53:00
3:53 AM,64.0,60.1,87,29.85,10.0,NW,5.8,-,N/A,,Clear,320,2013-09-02 08:53:00
4:53 AM,63.0,59.0,87,29.86,10.0,NW,8.1,-,N/A,,Partly Cloudy,310,2013-09-02 09:53:00
5:53 AM,63.0,59.0,87,29.88,10.0,NW,4.6,-,N/A,,Clear,310,2013-09-02 10:53:00
6:53 AM,62.1,60.1,93,29.90,10.0,WNW,4.6,-,N/A,,Partly Cloudy,300,2013-09-02 11:53:00
7:53 AM,66.0,62.1,87,29.92,10.0,NW,6.9,-,N/A,,Clear,310,2013-09-02 12:53:00
8:44 AM,71.6,64.4,78,29.94,10.0,North,9.2,17.3,N/A,,Mostly Cloudy,350,2013-09-02 13:44:00
8:53 AM,70.0,62.1,76,29.93,10.0,North,12.7,-,N/A,,Mostly Cloudy,360,2013-09-02 13:53:00
9:16 AM,69.8,60.8,73,29.95,10.0,North,10.4,-,N/A,,Overcast,360,2013-09-02 14:16:00
9:53 AM,69.1,60.1,73,29.95,10.0,North,11.5,-,N/A,,Overcast,10,2013-09-02 14:53:00
10:14 AM,69.8,60.8,73,29.96,10.0,North,12.7,-,N/A,,Overcast,10,2013-09-02 15:14:00
10:45 AM,69.8,60.8,73,29.97,10.0,North,11.5,17.3,N/A,,Overcast,360,2013-09-02 15:45:00
10:53 AM,70.0,60.1,71,29.96,10.0,North,10.4,-,N/A,,Overcast,350,2013-09-02 15:53:00
11:08 AM,71.6,60.8,69,29.97,10.0,NNE,13.8,-,N/A,,Mostly Cloudy,20,2013-09-02 16:08:00
11:53 AM,72.0,57.9,61,29.96,10.0,NNE,13.8,-,N/A,,Mostly Cloudy,30,2013-09-02 16:53:00
12:36 PM,69.8,57.2,64,29.98,10.0,North,9.2,18.4,N/A,,Overcast,10,2013-09-02 17:36:00
12:53 PM,68.0,57.0,68,29.97,10.0,NNE,12.7,-,N/A,,Overcast,20,2013-09-02 17:53:00
1:53 PM,71.1,57.9,63,29.96,10.0,NNE,11.5,-,N/A,,Mostly Cloudy,20,2013-09-02 18:53:00
2:53 PM,70.0,55.9,61,29.96,10.0,NNE,13.8,-,N/A,,Mostly Cloudy,20,2013-09-02 19:53:00
3:53 PM,69.1,57.0,65,29.96,10.0,North,11.5,-,N/A,,Scattered Clouds,10,2013-09-02 20:53:00
4:53 PM,68.0,55.9,65,29.97,10.0,NNE,9.2,17.3,N/A,,Partly Cloudy,20,2013-09-02 21:53:00
5:53 PM,68.0,55.9,65,29.97,10.0,North,12.7,-,N/A,,Partly Cloudy,10,2013-09-02 22:53:00
6:53 PM,66.0,54.0,65,29.98,10.0,North,12.7,-,N/A,,Overcast,10,2013-09-02 23:53:00
7:53 PM,62.1,52.0,70,29.99,10.0,North,6.9,-,N/A,,Clear,350,2013-09-03 00:53:00
8:53 PM,61.0,51.1,70,29.99,10.0,NNW,5.8,-,N/A,,Clear,330,2013-09-03 01:53:00
9:53 PM,63.0,51.1,65,30.00,10.0,NNW,5.8,-,N/A,,Mostly Cloudy,330,2013-09-03 02:53:00
10:53 PM,62.1,52.0,70,30.01,10.0,NNW,3.5,-,N/A,,Mostly Cloudy,330,2013-09-03 03:53:00
11:53 PM,60.1,52.0,75,30.01,10.0,North,6.9,-,N/A,,Clear,350,2013-09-03 04:53:00